Terminal Aerodrome Forecast
Issued by NWS Wilmington, OH

Current Version | Previous Version | Text Only | Print | Product List | Glossary Off
Versions: 1 2 3 4 5 6 7 8 9 10 11 12 13 14 15 16 17 18

000
FTUS41 KILN 271300 AAA
TAFDAY
TAF AMD
KDAY 271302Z 2713/2812 03004KT P6SM BKN120
      TEMPO 2713/2714 5SM BR
     FM271700 35008KT P6SM SCT022
     FM272300 34006KT P6SM SKC=

USA.gov is the U.S. government's official web portal to all federal, state and local government web resources and services.